VAAH Airport Information

Runway Information
Runway 05 Length 11447 ft width 150 ft
Elevation 180 ft Threshold 0 ft Heading 45
Runway 23 Length 11447 ft Width 150 ft
Elevation 189 ft Threshold 0 ft Heading 225
Airport Frequencies
Type ACC Name RADAR Frequency 123.75 MHZ
Type APP Name APPROACH Frequency 119.8 MHZ
Type ATIS Name ATIS Frequency 126.8 MHZ
Type TWR Name TOWER Frequency 119.6 MHZ
Airport Navaids
Type VOR-DME Name Ahmedabad Frequency 113100 KHZ
Type NDB Name Ahmedabad Frequency 215 KHZ
Airport Weather Information & NOTAM
ADDS - METARS form results

(1911 UTC 20 March 2019)
Data provider http://aviationweather.gov/metar/data/
 
METAR text: VAAH 201900Z 28004KT 4000 FU NSC 24/08 Q1011 NOSIG
Conditions at: VAAH (AHMADABAD , IN) observed 1900 UTC 20 March 2019
Temperature: 24.0°C (75°F)
Dewpoint: 8.0°C (46°F) [RH = 36%]
Pressure (altimeter): 29.85 inches Hg (1011.0 mb)
Winds: from the W (280 degrees) at 5 MPH (4 knots; 2.1 m/s)
Visibility: 2.49 miles (4.01 km)
Ceiling: at least 12,000 feet AGL
Clouds: sky clear below 12,000 feet AGL
Weather: FU  (smoke)

METAR text: VAAH 201830Z 00000KT 4000 FU NSC 26/07 Q1011 NOSIG
Conditions at: VAAH (AHMADABAD , IN) observed 1830 UTC 20 March 2019
Temperature: 26.0°C (79°F)
Dewpoint: 7.0°C (45°F) [RH = 30%]
Pressure (altimeter): 29.85 inches Hg (1011.0 mb)
Winds: calm
Visibility: 2.49 miles (4.01 km)
Ceiling: at least 12,000 feet AGL
Clouds: sky clear below 12,000 feet AGL
Weather: FU  (smoke)

Forecast for: VAAH (AHMADABAD , IN)
Text: TAF VAAH 201700Z 2018/2103 02003KT 4000 FUHZ NSC
Forecast period: 1800 UTC 20 March 2019 to 0100 UTC 21 March 2019
Forecast type: FROM: standard forecast or significant change
Winds: from the NNE (20 degrees) at 3 MPH (3 knots; 1.5 m/s)
Visibility: 2.49 miles (4.01 km)
Ceiling: unknown
Clouds: missing
Weather: FU HZ  (smoke, haze)
Text: BECMG 2101/2103 33004KT 2000 HZ
Forecast period: 0100 to 0300 UTC 21 March 2019
Forecast type: BECOMING: Conditions expected to become as follows by 0300 UTC 21 March 2019
Winds: from the NNW (330 degrees) at 5 MPH (4 knots; 2.1 m/s)
Visibility: 1.24 miles (2.00 km)
Ceiling: unknown
Clouds: missing
Weather: HZ  (haze)